KROA/ROA METAR and TAF weather

Enter ICAO airport designator
Station Type Date Time Source
KROA METAR 2020/06/03 21:54 UTC NOAA

KROA 032154Z 26013KT 10SM FEW250 33/13 A2985 RMK AO2 SLP092 T03280133


Station Type Date Time Source
KROA Decoded METAR 2020/06/03 21:54 UTC NOAA

ROANOKE REGIONAL AIRPORT, VA, United States (KROA) 37-19N 079-58W 362M
Jun 03, 2020 - 05:54 PM EDT / 2020.06.03 2154 UTC
Wind: from the W (260 degrees) at 15 MPH (13 KT):0
Visibility: 10 mile(s):0
Sky conditions: mostly clear
Temperature: 91.0 F (32.8 C)
Dew Point: 55.9 F (13.3 C)
Relative Humidity: 30%
Pressure (altimeter): 29.85 in. Hg (1010 hPa)
ob: KROA 032154Z 26013KT 10SM FEW250 33/13 A2985 RMK AO2 SLP092 T03280133
cycle: 22

Station Type Date Time Source
KROA TAF 2020/06/03 18:22 UTC NOAA

TAF KROA 031720Z 0318/0418 27009G19KT P6SM FEW200
FM040000 26006KT P6SM SCT070
FM041600 21006KT P6SM BKN060

Example: see airport list